METAR AND TAF INFORMATION

METAR FOR SVPR
ADDS - METARS form results

(0727 UTC 29 September 2022)
Data provider http://aviationweather.gov/metar/data/
 
Forecast for: SVPR (GUAYANA/MANUEL C, VE)
Text: TAF SVPR 290400Z 2906/3006 00000KT 9999 BKN013 TX34/2918Z TN23/3007Z
Forecast period: 0600 UTC 29 September 2022 to 0600 UTC 30 September 2022
Forecast type: FROM: standard forecast or significant change
Winds: calm
Visibility: 6 or more miles (10+ km)
Ceiling: 1300 feet AGL
Clouds: broken clouds at 1300 feet AGL
Weather: no significant weather forecast for this period
Text: TEMPO 2904/2912 00000KT 9000 DZ SCT100 SCT013
Forecast period: 0400 to 1200 UTC 29 September 2022
Forecast type: TEMPORARY: The following changes expected for less than half the time period
Winds: calm
Visibility: 6 miles (9 km)
Ceiling: at least 12,000 feet AGL
Clouds: scattered clouds at 1300 feet AGL
scattered clouds at 10000 feet AGL
Weather: DZ  (moderate drizzle)

 

AIRPORT MAP

 

RUNWAY INFORMATION

Runway 07 Runway length 6726 ft Runway width 148 ft
Runway elevation 472 ft Runway displaced threshold 0 ft Runway heading 64
Runway 25 Runway length 6726 ft Runway width 148 ft
Runway elevation 472 ft Runway displaced threshold 0 ft Runway heading 244

 

AIRPORT FREQUENCIES

Type GND Name GND Frequency 121.9 MHZ
Type TWR Name GUAYANA TW Frequency 118 MHZ

 

AIRPORT NEAR NAVIGATION AIDS

Type VORTAC Name Guayana Frequency 114700 KHZ
Type NDB Name Guayana Frequency 317 KHZ